Gayville, South Dakota
Current Conditions -  °F | °C
As of 2:35 PM on Thursday 29 Jan 2015 (Local Time) from KYKN Reporting Station
Overcast Overcast  
Wind Chill: 25°   Ceiling: 2800
Heat Index: 36°   Visibility: 10mi
Dew Point: 21°   Wind: 20mph
Humidity: 56%   Direction: 340°NNW
Pressure: 30.45"   Gusts: NA
Location:  42.89°N, 97.17°W
Report Text: KYKN 292035Z AUTO 34017KT 10SM OVC028 02/M06 A3045 RMK AO1
Loading
Personal Weather Stations






























Interactive Weather Map New forecast layout! Learn more

10-Day Weather Forecast

Advertisements
Track Severe Weather on mobile